sensor_id;sensor_type;location;lat;lon;timestamp;temperature;humidity
9486;DHT22;4781;48.776;9.200;2023-04-29T00:00:57;12.90;99.90
9486;DHT22;4781;48.776;9.200;2023-04-29T00:03:23;12.90;99.90
9486;DHT22;4781;48.776;9.200;2023-04-29T00:05:49;12.90;99.90
9486;DHT22;4781;48.776;9.200;2023-04-29T00:08:15;12.90;99.90
9486;DHT22;4781;48.776;9.200;2023-04-29T00:10:41;12.90;99.90
9486;DHT22;4781;48.776;9.200;2023-04-29T00:13:06;12.80;99.90
9486;DHT22;4781;48.776;9.200;2023-04-29T00:15:32;12.80;99.90
9486;DHT22;4781;48.776;9.200;2023-04-29T00:17:58;12.80;99.90
9486;DHT22;4781;48.776;9.200;2023-04-29T00:20:24;12.90;99.90
9486;DHT22;4781;48.776;9.200;2023-04-29T00:22:50;12.90;99.90
9486;DHT22;4781;48.776;9.200;2023-04-29T00:25:18;12.90;99.90
9486;DHT22;4781;48.776;9.200;2023-04-29T00:27:44;12.90;99.90
9486;DHT22;4781;48.776;9.200;2023-04-29T00:33:03;12.80;99.90
9486;DHT22;4781;48.776;9.200;2023-04-29T00:35:28;12.80;99.90
9486;DHT22;4781;48.776;9.200;2023-04-29T00:37:54;12.80;99.90
9486;DHT22;4781;48.776;9.200;2023-04-29T00:40:20;12.80;99.90
9486;DHT22;4781;48.776;9.200;2023-04-29T00:42:46;12.80;99.90
9486;DHT22;4781;48.776;9.200;2023-04-29T00:45:12;12.80;99.90
9486;DHT22;4781;48.776;9.200;2023-04-29T00:47:38;12.80;99.90
9486;DHT22;4781;48.776;9.200;2023-04-29T00:50:06;12.80;99.90
9486;DHT22;4781;48.776;9.200;2023-04-29T00:52:33;12.80;99.90
9486;DHT22;4781;48.776;9.200;2023-04-29T00:55:00;12.80;99.90
9486;DHT22;4781;48.776;9.200;2023-04-29T00:57:26;12.70;99.90
9486;DHT22;4781;48.776;9.200;2023-04-29T00:59:55;12.70;99.90
9486;DHT22;4781;48.776;9.200;2023-04-29T01:02:42;12.70;99.90
9486;DHT22;4781;48.776;9.200;2023-04-29T01:05:09;12.70;99.90
9486;DHT22;4781;48.776;9.200;2023-04-29T01:07:55;12.70;99.90
9486;DHT22;4781;48.776;9.200;2023-04-29T01:10:26;12.70;99.90
9486;DHT22;4781;48.776;9.200;2023-04-29T01:15:44;12.60;99.90
9486;DHT22;4781;48.776;9.200;2023-04-29T01:18:28;12.60;99.90
9486;DHT22;4781;48.776;9.200;2023-04-29T01:20:51;12.60;99.90
9486;DHT22;4781;48.776;9.200;2023-04-29T01:23:17;12.60;99.90
9486;DHT22;4781;48.776;9.200;2023-04-29T01:25:43;12.80;99.90
9486;DHT22;4781;48.776;9.200;2023-04-29T01:31:04;12.80;99.90
9486;DHT22;4781;48.776;9.200;2023-04-29T01:37:09;12.60;99.90
9486;DHT22;4781;48.776;9.200;2023-04-29T01:43:14;12.60;99.90
9486;DHT22;4781;48.776;9.200;2023-04-29T01:45:40;12.50;99.90
9486;DHT22;4781;48.776;9.200;2023-04-29T01:48:08;12.60;99.90
9486;DHT22;4781;48.776;9.200;2023-04-29T01:50:34;12.60;99.90
9486;DHT22;4781;48.776;9.200;2023-04-29T01:53:00;12.50;99.90
9486;DHT22;4781;48.776;9.200;2023-04-29T01:55:26;12.50;99.90
9486;DHT22;4781;48.776;9.200;2023-04-29T01:57:54;12.50;99.90
9486;DHT22;4781;48.776;9.200;2023-04-29T02:00:23;12.50;99.90
9486;DHT22;4781;48.776;9.200;2023-04-29T02:02:49;12.50;99.90
9486;DHT22;4781;48.776;9.200;2023-04-29T02:05:15;12.50;99.90
9486;DHT22;4781;48.776;9.200;2023-04-29T02:07:41;12.40;99.90
9486;DHT22;4781;48.776;9.200;2023-04-29T02:10:09;12.40;99.90
9486;DHT22;4781;48.776;9.200;2023-04-29T02:12:36;12.40;99.90
9486;DHT22;4781;48.776;9.200;2023-04-29T02:15:04;12.50;99.90
9486;DHT22;4781;48.776;9.200;2023-04-29T02:17:32;12.40;99.90
9486;DHT22;4781;48.776;9.200;2023-04-29T02:19:59;12.40;99.90
9486;DHT22;4781;48.776;9.200;2023-04-29T02:22:24;12.40;99.90
9486;DHT22;4781;48.776;9.200;2023-04-29T02:24:50;12.30;99.90
9486;DHT22;4781;48.776;9.200;2023-04-29T02:27:16;12.40;99.90
9486;DHT22;4781;48.776;9.200;2023-04-29T02:29:42;12.30;99.90
9486;DHT22;4781;48.776;9.200;2023-04-29T02:32:08;12.30;99.90
9486;DHT22;4781;48.776;9.200;2023-04-29T02:34:34;12.30;99.90
9486;DHT22;4781;48.776;9.200;2023-04-29T02:37:00;12.20;99.90
9486;DHT22;4781;48.776;9.200;2023-04-29T02:39:26;12.20;99.90
9486;DHT22;4781;48.776;9.200;2023-04-29T02:41:53;12.10;99.90
9486;DHT22;4781;48.776;9.200;2023-04-29T02:44:20;12.10;99.90
9486;DHT22;4781;48.776;9.200;2023-04-29T02:46:47;12.10;99.90
9486;DHT22;4781;48.776;9.200;2023-04-29T02:49:12;12.10;99.90
9486;DHT22;4781;48.776;9.200;2023-04-29T02:51:38;12.10;99.90
9486;DHT22;4781;48.776;9.200;2023-04-29T02:54:05;12.00;99.90
9486;DHT22;4781;48.776;9.200;2023-04-29T02:56:31;12.10;99.90
9486;DHT22;4781;48.776;9.200;2023-04-29T02:58:59;12.00;99.90
9486;DHT22;4781;48.776;9.200;2023-04-29T03:01:25;11.90;99.90
9486;DHT22;4781;48.776;9.200;2023-04-29T03:03:51;11.90;99.90
9486;DHT22;4781;48.776;9.200;2023-04-29T03:06:18;11.90;99.90
9486;DHT22;4781;48.776;9.200;2023-04-29T03:08:44;11.90;99.90
9486;DHT22;4781;48.776;9.200;2023-04-29T03:11:10;11.80;99.90
9486;DHT22;4781;48.776;9.200;2023-04-29T03:13:35;11.80;99.90
9486;DHT22;4781;48.776;9.200;2023-04-29T03:16:02;11.80;99.90
9486;DHT22;4781;48.776;9.200;2023-04-29T03:18:28;11.80;99.90
9486;DHT22;4781;48.776;9.200;2023-04-29T03:20:54;11.80;99.90
9486;DHT22;4781;48.776;9.200;2023-04-29T03:23:20;11.60;99.90
9486;DHT22;4781;48.776;9.200;2023-04-29T03:25:46;11.60;99.90
9486;DHT22;4781;48.776;9.200;2023-04-29T03:28:12;11.70;99.90
9486;DHT22;4781;48.776;9.200;2023-04-29T03:30:39;11.70;99.90
9486;DHT22;4781;48.776;9.200;2023-04-29T03:33:05;11.80;99.90
9486;DHT22;4781;48.776;9.200;2023-04-29T03:35:31;11.80;99.90
9486;DHT22;4781;48.776;9.200;2023-04-29T03:37:57;11.80;99.90
9486;DHT22;4781;48.776;9.200;2023-04-29T03:40:22;11.80;99.90
9486;DHT22;4781;48.776;9.200;2023-04-29T03:42:48;11.80;99.90
9486;DHT22;4781;48.776;9.200;2023-04-29T03:45:14;11.80;99.90
9486;DHT22;4781;48.776;9.200;2023-04-29T03:47:40;11.80;99.90
9486;DHT22;4781;48.776;9.200;2023-04-29T03:50:07;11.70;99.90
9486;DHT22;4781;48.776;9.200;2023-04-29T03:52:33;11.70;99.90
9486;DHT22;4781;48.776;9.200;2023-04-29T03:55:02;11.60;99.90
9486;DHT22;4781;48.776;9.200;2023-04-29T03:57:28;11.60;99.90
9486;DHT22;4781;48.776;9.200;2023-04-29T03:59:54;11.50;99.90
9486;DHT22;4781;48.776;9.200;2023-04-29T04:02:20;11.40;99.90
9486;DHT22;4781;48.776;9.200;2023-04-29T04:04:46;11.40;99.90
9486;DHT22;4781;48.776;9.200;2023-04-29T04:07:13;11.40;99.90
9486;DHT22;4781;48.776;9.200;2023-04-29T04:09:39;11.30;99.90
9486;DHT22;4781;48.776;9.200;2023-04-29T04:12:05;11.30;99.90
9486;DHT22;4781;48.776;9.200;2023-04-29T04:14:31;11.30;99.90
9486;DHT22;4781;48.776;9.200;2023-04-29T04:16:57;11.20;99.90
9486;DHT22;4781;48.776;9.200;2023-04-29T04:19:23;11.20;99.90
9486;DHT22;4781;48.776;9.200;2023-04-29T04:21:49;11.20;99.90
9486;DHT22;4781;48.776;9.200;2023-04-29T04:24:15;11.20;99.90
9486;DHT22;4781;48.776;9.200;2023-04-29T04:26:41;11.20;99.90
9486;DHT22;4781;48.776;9.200;2023-04-29T04:29:06;11.30;99.90
9486;DHT22;4781;48.776;9.200;2023-04-29T04:31:32;11.20;99.90
9486;DHT22;4781;48.776;9.200;2023-04-29T04:33:58;11.30;99.90
9486;DHT22;4781;48.776;9.200;2023-04-29T04:36:24;11.30;99.90
9486;DHT22;4781;48.776;9.200;2023-04-29T04:38:51;11.30;99.90
9486;DHT22;4781;48.776;9.200;2023-04-29T04:41:16;11.30;99.90
9486;DHT22;4781;48.776;9.200;2023-04-29T04:43:42;11.30;99.90
9486;DHT22;4781;48.776;9.200;2023-04-29T04:46:12;11.30;99.90
9486;DHT22;4781;48.776;9.200;2023-04-29T04:48:39;11.30;99.90
9486;DHT22;4781;48.776;9.200;2023-04-29T04:51:09;11.30;99.90
9486;DHT22;4781;48.776;9.200;2023-04-29T04:53:35;11.30;99.90
9486;DHT22;4781;48.776;9.200;2023-04-29T04:56:02;11.30;99.90
9486;DHT22;4781;48.776;9.200;2023-04-29T04:58:29;11.30;99.90
9486;DHT22;4781;48.776;9.200;2023-04-29T05:00:59;11.20;99.90
9486;DHT22;4781;48.776;9.200;2023-04-29T05:03:25;11.20;99.90
9486;DHT22;4781;48.776;9.200;2023-04-29T05:05:56;11.20;99.90
9486;DHT22;4781;48.776;9.200;2023-04-29T05:08:24;11.30;99.90
9486;DHT22;4781;48.776;9.200;2023-04-29T05:10:53;11.30;99.90
9486;DHT22;4781;48.776;9.200;2023-04-29T05:13:19;11.40;99.90
9486;DHT22;4781;48.776;9.200;2023-04-29T05:15:45;11.40;99.90
9486;DHT22;4781;48.776;9.200;2023-04-29T05:18:11;11.40;99.90
9486;DHT22;4781;48.776;9.200;2023-04-29T05:20:37;11.40;99.90
9486;DHT22;4781;48.776;9.200;2023-04-29T05:23:03;11.40;99.90
9486;DHT22;4781;48.776;9.200;2023-04-29T05:25:28;11.50;99.90
9486;DHT22;4781;48.776;9.200;2023-04-29T05:27:54;11.50;99.90
9486;DHT22;4781;48.776;9.200;2023-04-29T05:30:20;11.60;99.90
9486;DHT22;4781;48.776;9.200;2023-04-29T05:32:46;11.60;99.90
9486;DHT22;4781;48.776;9.200;2023-04-29T05:35:15;11.70;99.90
9486;DHT22;4781;48.776;9.200;2023-04-29T05:37:45;11.70;99.90
9486;DHT22;4781;48.776;9.200;2023-04-29T05:40:11;11.80;99.90
9486;DHT22;4781;48.776;9.200;2023-04-29T05:42:37;11.80;99.90
9486;DHT22;4781;48.776;9.200;2023-04-29T05:45:04;11.90;99.90
9486;DHT22;4781;48.776;9.200;2023-04-29T05:47:30;11.90;99.90
9486;DHT22;4781;48.776;9.200;2023-04-29T05:49:56;12.00;99.90
9486;DHT22;4781;48.776;9.200;2023-04-29T05:52:22;12.10;99.90
9486;DHT22;4781;48.776;9.200;2023-04-29T05:54:48;12.10;99.90
9486;DHT22;4781;48.776;9.200;2023-04-29T05:57:14;12.20;99.90
9486;DHT22;4781;48.776;9.200;2023-04-29T05:59:40;12.30;99.90
9486;DHT22;4781;48.776;9.200;2023-04-29T06:02:05;12.30;99.90
9486;DHT22;4781;48.776;9.200;2023-04-29T06:04:35;12.30;99.90
9486;DHT22;4781;48.776;9.200;2023-04-29T06:07:01;12.30;99.90
9486;DHT22;4781;48.776;9.200;2023-04-29T06:09:29;12.40;99.90
9486;DHT22;4781;48.776;9.200;2023-04-29T06:11:55;12.40;99.90
9486;DHT22;4781;48.776;9.200;2023-04-29T06:14:21;12.40;99.90
9486;DHT22;4781;48.776;9.200;2023-04-29T06:16:47;12.50;99.90
9486;DHT22;4781;48.776;9.200;2023-04-29T06:19:14;12.50;99.90
9486;DHT22;4781;48.776;9.200;2023-04-29T06:21:39;12.50;99.90
9486;DHT22;4781;48.776;9.200;2023-04-29T06:24:05;12.60;99.90
9486;DHT22;4781;48.776;9.200;2023-04-29T06:26:32;12.50;99.90
9486;DHT22;4781;48.776;9.200;2023-04-29T06:28:58;12.50;99.90
9486;DHT22;4781;48.776;9.200;2023-04-29T06:31:24;12.60;99.90
9486;DHT22;4781;48.776;9.200;2023-04-29T06:33:50;12.60;99.90
9486;DHT22;4781;48.776;9.200;2023-04-29T06:36:16;12.60;99.90
9486;DHT22;4781;48.776;9.200;2023-04-29T06:38:42;12.80;99.90
9486;DHT22;4781;48.776;9.200;2023-04-29T06:41:08;12.80;99.90
9486;DHT22;4781;48.776;9.200;2023-04-29T06:43:34;12.90;99.90
9486;DHT22;4781;48.776;9.200;2023-04-29T06:46:01;13.00;99.90
9486;DHT22;4781;48.776;9.200;2023-04-29T06:48:27;13.00;99.90
9486;DHT22;4781;48.776;9.200;2023-04-29T06:50:57;12.90;99.90
9486;DHT22;4781;48.776;9.200;2023-04-29T06:53:24;12.90;99.90
9486;DHT22;4781;48.776;9.200;2023-04-29T06:55:50;12.80;99.90
9486;DHT22;4781;48.776;9.200;2023-04-29T06:58:17;12.80;99.90
9486;DHT22;4781;48.776;9.200;2023-04-29T07:00:48;12.90;99.90
9486;DHT22;4781;48.776;9.200;2023-04-29T07:03:16;12.90;99.90
9486;DHT22;4781;48.776;9.200;2023-04-29T07:05:43;12.90;99.90
9486;DHT22;4781;48.776;9.200;2023-04-29T07:08:11;12.80;99.90
9486;DHT22;4781;48.776;9.200;2023-04-29T07:10:37;12.90;99.90
9486;DHT22;4781;48.776;9.200;2023-04-29T07:15:51;12.80;99.90
9486;DHT22;4781;48.776;9.200;2023-04-29T07:18:17;13.00;99.90
9486;DHT22;4781;48.776;9.200;2023-04-29T07:20:43;13.10;99.90
9486;DHT22;4781;48.776;9.200;2023-04-29T07:23:10;13.10;99.90
9486;DHT22;4781;48.776;9.200;2023-04-29T07:25:40;13.10;99.90
9486;DHT22;4781;48.776;9.200;2023-04-29T07:28:06;13.00;99.90
9486;DHT22;4781;48.776;9.200;2023-04-29T07:30:33;13.00;99.90
9486;DHT22;4781;48.776;9.200;2023-04-29T07:33:00;12.90;99.90
9486;DHT22;4781;48.776;9.200;2023-04-29T07:35:26;12.90;99.90
9486;DHT22;4781;48.776;9.200;2023-04-29T07:37:52;12.90;99.90
9486;DHT22;4781;48.776;9.200;2023-04-29T07:40:19;12.90;99.90
9486;DHT22;4781;48.776;9.200;2023-04-29T07:42:45;13.00;99.90
9486;DHT22;4781;48.776;9.200;2023-04-29T07:45:11;13.10;99.90
9486;DHT22;4781;48.776;9.200;2023-04-29T07:47:38;13.10;99.90
9486;DHT22;4781;48.776;9.200;2023-04-29T07:50:05;13.10;99.90
9486;DHT22;4781;48.776;9.200;2023-04-29T07:52:51;13.00;99.90
9486;DHT22;4781;48.776;9.200;2023-04-29T07:55:19;13.00;99.90
9486;DHT22;4781;48.776;9.200;2023-04-29T07:57:45;13.00;99.90
9486;DHT22;4781;48.776;9.200;2023-04-29T08:00:12;13.10;99.90
9486;DHT22;4781;48.776;9.200;2023-04-29T08:02:38;13.10;99.90
9486;DHT22;4781;48.776;9.200;2023-04-29T08:05:04;13.10;99.90
9486;DHT22;4781;48.776;9.200;2023-04-29T08:07:30;13.20;99.90
9486;DHT22;4781;48.776;9.200;2023-04-29T08:09:56;13.30;99.90
9486;DHT22;4781;48.776;9.200;2023-04-29T08:12:22;13.20;99.90
9486;DHT22;4781;48.776;9.200;2023-04-29T08:14:48;13.20;99.90
9486;DHT22;4781;48.776;9.200;2023-04-29T08:17:14;13.30;99.90
9486;DHT22;4781;48.776;9.200;2023-04-29T08:19:40;13.20;99.90
9486;DHT22;4781;48.776;9.200;2023-04-29T08:22:06;13.30;99.90
9486;DHT22;4781;48.776;9.200;2023-04-29T08:24:32;13.30;99.90
9486;DHT22;4781;48.776;9.200;2023-04-29T08:26:59;13.40;99.90
9486;DHT22;4781;48.776;9.200;2023-04-29T08:29:26;13.40;99.90
9486;DHT22;4781;48.776;9.200;2023-04-29T08:31:52;13.40;99.90
9486;DHT22;4781;48.776;9.200;2023-04-29T08:34:18;13.30;99.90
9486;DHT22;4781;48.776;9.200;2023-04-29T08:36:44;13.40;99.90
9486;DHT22;4781;48.776;9.200;2023-04-29T08:39:09;13.40;99.90
9486;DHT22;4781;48.776;9.200;2023-04-29T08:41:35;13.40;99.90
9486;DHT22;4781;48.776;9.200;2023-04-29T08:44:04;13.40;99.90
9486;DHT22;4781;48.776;9.200;2023-04-29T08:46:30;13.30;99.90
9486;DHT22;4781;48.776;9.200;2023-04-29T08:48:57;13.30;99.90
9486;DHT22;4781;48.776;9.200;2023-04-29T08:51:24;13.20;99.90
9486;DHT22;4781;48.776;9.200;2023-04-29T08:53:50;13.10;99.90
9486;DHT22;4781;48.776;9.200;2023-04-29T08:56:16;13.10;99.90
9486;DHT22;4781;48.776;9.200;2023-04-29T08:58:49;13.00;99.90
9486;DHT22;4781;48.776;9.200;2023-04-29T09:01:18;13.00;99.90
9486;DHT22;4781;48.776;9.200;2023-04-29T09:06:57;13.00;99.90
9486;DHT22;4781;48.776;9.200;2023-04-29T09:09:25;13.00;99.90
9486;DHT22;4781;48.776;9.200;2023-04-29T09:11:59;13.10;99.90
9486;DHT22;4781;48.776;9.200;2023-04-29T09:14:24;13.10;99.90
9486;DHT22;4781;48.776;9.200;2023-04-29T09:16:50;13.10;99.90
9486;DHT22;4781;48.776;9.200;2023-04-29T09:19:33;13.30;99.90
9486;DHT22;4781;48.776;9.200;2023-04-29T09:22:01;13.30;99.90
9486;DHT22;4781;48.776;9.200;2023-04-29T09:24:29;13.30;99.90
9486;DHT22;4781;48.776;9.200;2023-04-29T09:26:57;13.30;99.90
9486;DHT22;4781;48.776;9.200;2023-04-29T09:29:24;13.20;99.90
9486;DHT22;4781;48.776;9.200;2023-04-29T09:31:51;13.30;99.90
9486;DHT22;4781;48.776;9.200;2023-04-29T09:34:30;13.40;99.90
9486;DHT22;4781;48.776;9.200;2023-04-29T09:36:57;13.40;99.90
9486;DHT22;4781;48.776;9.200;2023-04-29T09:39:24;13.40;99.90
9486;DHT22;4781;48.776;9.200;2023-04-29T09:44:26;13.50;99.90
9486;DHT22;4781;48.776;9.200;2023-04-29T09:49:46;13.60;99.90
9486;DHT22;4781;48.776;9.200;2023-04-29T09:52:15;13.60;99.90
9486;DHT22;4781;48.776;9.200;2023-04-29T09:54:43;13.70;99.90
9486;DHT22;4781;48.776;9.200;2023-04-29T09:57:11;13.80;99.90
9486;DHT22;4781;48.776;9.200;2023-04-29T09:59:40;13.90;99.90
9486;DHT22;4781;48.776;9.200;2023-04-29T10:04:48;14.10;99.90
9486;DHT22;4781;48.776;9.200;2023-04-29T10:07:18;14.10;99.90
9486;DHT22;4781;48.776;9.200;2023-04-29T10:09:45;14.10;99.90
9486;DHT22;4781;48.776;9.200;2023-04-29T10:15:02;14.70;99.90
9486;DHT22;4781;48.776;9.200;2023-04-29T10:20:03;15.20;99.90
9486;DHT22;4781;48.776;9.200;2023-04-29T10:25:16;15.30;99.90
9486;DHT22;4781;48.776;9.200;2023-04-29T10:27:45;15.50;99.90
9486;DHT22;4781;48.776;9.200;2023-04-29T10:30:17;15.40;99.90
9486;DHT22;4781;48.776;9.200;2023-04-29T10:32:45;15.40;99.90
9486;DHT22;4781;48.776;9.200;2023-04-29T10:35:13;15.30;99.90
9486;DHT22;4781;48.776;9.200;2023-04-29T10:37:41;15.10;99.90
9486;DHT22;4781;48.776;9.200;2023-04-29T10:43:07;15.00;99.90
9486;DHT22;4781;48.776;9.200;2023-04-29T10:45:33;15.00;99.90
9486;DHT22;4781;48.776;9.200;2023-04-29T10:48:07;15.10;99.90
9486;DHT22;4781;48.776;9.200;2023-04-29T10:53:19;15.10;99.90
9486;DHT22;4781;48.776;9.200;2023-04-29T10:55:53;15.20;99.90
9486;DHT22;4781;48.776;9.200;2023-04-29T11:01:51;15.10;99.90
9486;DHT22;4781;48.776;9.200;2023-04-29T11:04:17;15.00;99.90
9486;DHT22;4781;48.776;9.200;2023-04-29T11:06:50;15.20;99.90
9486;DHT22;4781;48.776;9.200;2023-04-29T11:12:02;15.40;99.90
9486;DHT22;4781;48.776;9.200;2023-04-29T11:14:41;15.30;99.90
9486;DHT22;4781;48.776;9.200;2023-04-29T11:17:11;15.30;99.90
9486;DHT22;4781;48.776;9.200;2023-04-29T11:22:29;15.30;99.90
9486;DHT22;4781;48.776;9.200;2023-04-29T11:27:34;15.20;99.90
9486;DHT22;4781;48.776;9.200;2023-04-29T11:30:02;15.10;99.90
9486;DHT22;4781;48.776;9.200;2023-04-29T11:32:40;15.10;99.90
9486;DHT22;4781;48.776;9.200;2023-04-29T11:37:44;15.20;99.90
9486;DHT22;4781;48.776;9.200;2023-04-29T11:40:12;15.20;99.90
9486;DHT22;4781;48.776;9.200;2023-04-29T11:42:48;15.20;99.90
9486;DHT22;4781;48.776;9.200;2023-04-29T11:45:17;15.20;99.90
9486;DHT22;4781;48.776;9.200;2023-04-29T11:47:44;15.30;99.90
9486;DHT22;4781;48.776;9.200;2023-04-29T11:50:12;15.40;99.90
9486;DHT22;4781;48.776;9.200;2023-04-29T11:52:41;15.60;99.90
9486;DHT22;4781;48.776;9.200;2023-04-29T11:55:09;15.60;99.90
9486;DHT22;4781;48.776;9.200;2023-04-29T11:57:36;15.80;99.90
9486;DHT22;4781;48.776;9.200;2023-04-29T12:00:04;16.10;99.90
9486;DHT22;4781;48.776;9.200;2023-04-29T12:02:31;16.20;99.90
9486;DHT22;4781;48.776;9.200;2023-04-29T12:05:07;16.20;99.90
9486;DHT22;4781;48.776;9.200;2023-04-29T12:07:36;16.20;99.90
9486;DHT22;4781;48.776;9.200;2023-04-29T12:10:06;16.30;99.90
9486;DHT22;4781;48.776;9.200;2023-04-29T12:12:35;16.40;99.90
9486;DHT22;4781;48.776;9.200;2023-04-29T12:15:05;16.50;99.90
9486;DHT22;4781;48.776;9.200;2023-04-29T12:17:32;16.70;99.90
9486;DHT22;4781;48.776;9.200;2023-04-29T12:19:58;16.60;99.90
9486;DHT22;4781;48.776;9.200;2023-04-29T12:22:32;16.60;99.90
9486;DHT22;4781;48.776;9.200;2023-04-29T12:24:58;16.70;99.90
9486;DHT22;4781;48.776;9.200;2023-04-29T12:27:26;16.90;99.90
9486;DHT22;4781;48.776;9.200;2023-04-29T12:29:51;17.00;99.90
9486;DHT22;4781;48.776;9.200;2023-04-29T12:32:25;17.20;99.90
9486;DHT22;4781;48.776;9.200;2023-04-29T12:34:52;17.20;99.90
9486;DHT22;4781;48.776;9.200;2023-04-29T12:37:20;17.00;99.90
9486;DHT22;4781;48.776;9.200;2023-04-29T12:39:48;16.90;99.90
9486;DHT22;4781;48.776;9.200;2023-04-29T12:42:15;16.80;99.90
9486;DHT22;4781;48.776;9.200;2023-04-29T12:44:45;16.70;99.90
9486;DHT22;4781;48.776;9.200;2023-04-29T12:47:14;16.60;99.90
9486;DHT22;4781;48.776;9.200;2023-04-29T12:49:44;16.50;99.90
9486;DHT22;4781;48.776;9.200;2023-04-29T12:52:10;16.50;99.90
9486;DHT22;4781;48.776;9.200;2023-04-29T12:54:37;16.70;99.90
9486;DHT22;4781;48.776;9.200;2023-04-29T12:57:06;17.00;99.90
9486;DHT22;4781;48.776;9.200;2023-04-29T12:59:32;17.00;99.90
9486;DHT22;4781;48.776;9.200;2023-04-29T13:01:58;17.00;99.90
9486;DHT22;4781;48.776;9.200;2023-04-29T13:04:24;17.20;99.90
9486;DHT22;4781;48.776;9.200;2023-04-29T13:06:50;17.30;99.90
9486;DHT22;4781;48.776;9.200;2023-04-29T13:09:24;17.30;99.90
9486;DHT22;4781;48.776;9.200;2023-04-29T13:11:48;17.40;99.90
9486;DHT22;4781;48.776;9.200;2023-04-29T13:14:13;17.50;99.90
9486;DHT22;4781;48.776;9.200;2023-04-29T13:16:39;17.40;99.90
9486;DHT22;4781;48.776;9.200;2023-04-29T13:19:05;17.40;99.90
9486;DHT22;4781;48.776;9.200;2023-04-29T13:21:31;17.30;99.90
9486;DHT22;4781;48.776;9.200;2023-04-29T13:23:57;17.20;99.90
9486;DHT22;4781;48.776;9.200;2023-04-29T13:26:23;17.20;99.90
9486;DHT22;4781;48.776;9.200;2023-04-29T13:28:50;17.40;99.90
9486;DHT22;4781;48.776;9.200;2023-04-29T13:31:16;17.50;99.90
9486;DHT22;4781;48.776;9.200;2023-04-29T13:33:42;17.70;99.90
9486;DHT22;4781;48.776;9.200;2023-04-29T13:36:09;17.60;99.90
9486;DHT22;4781;48.776;9.200;2023-04-29T13:38:35;17.70;99.90
9486;DHT22;4781;48.776;9.200;2023-04-29T13:41:01;17.60;99.90
9486;DHT22;4781;48.776;9.200;2023-04-29T13:43:27;17.60;99.90
9486;DHT22;4781;48.776;9.200;2023-04-29T13:45:54;17.70;99.90
9486;DHT22;4781;48.776;9.200;2023-04-29T13:48:21;17.70;99.90
9486;DHT22;4781;48.776;9.200;2023-04-29T13:50:48;17.60;99.90
9486;DHT22;4781;48.776;9.200;2023-04-29T13:53:14;17.60;99.90
9486;DHT22;4781;48.776;9.200;2023-04-29T13:55:41;17.70;99.90
9486;DHT22;4781;48.776;9.200;2023-04-29T13:58:07;17.80;99.90
9486;DHT22;4781;48.776;9.200;2023-04-29T14:00:33;18.00;99.90
9486;DHT22;4781;48.776;9.200;2023-04-29T14:02:59;18.20;99.90
9486;DHT22;4781;48.776;9.200;2023-04-29T14:05:25;18.10;99.90
9486;DHT22;4781;48.776;9.200;2023-04-29T14:07:51;18.00;99.90
9486;DHT22;4781;48.776;9.200;2023-04-29T14:10:17;18.00;99.90
9486;DHT22;4781;48.776;9.200;2023-04-29T14:12:43;17.90;99.90
9486;DHT22;4781;48.776;9.200;2023-04-29T14:15:10;17.80;99.90
9486;DHT22;4781;48.776;9.200;2023-04-29T14:17:36;18.00;99.90
9486;DHT22;4781;48.776;9.200;2023-04-29T14:20:02;18.00;99.90
9486;DHT22;4781;48.776;9.200;2023-04-29T14:22:29;18.10;99.90
9486;DHT22;4781;48.776;9.200;2023-04-29T14:24:55;18.00;99.90
9486;DHT22;4781;48.776;9.200;2023-04-29T14:27:21;18.00;99.90
9486;DHT22;4781;48.776;9.200;2023-04-29T14:29:47;17.90;99.90
9486;DHT22;4781;48.776;9.200;2023-04-29T14:32:13;17.80;99.90
9486;DHT22;4781;48.776;9.200;2023-04-29T14:34:38;17.80;99.90
9486;DHT22;4781;48.776;9.200;2023-04-29T14:37:04;17.70;99.90
9486;DHT22;4781;48.776;9.200;2023-04-29T14:39:30;17.40;99.90
9486;DHT22;4781;48.776;9.200;2023-04-29T14:41:56;17.30;99.90
9486;DHT22;4781;48.776;9.200;2023-04-29T14:44:22;17.20;99.90
9486;DHT22;4781;48.776;9.200;2023-04-29T14:46:48;17.20;99.90
9486;DHT22;4781;48.776;9.200;2023-04-29T14:49:14;17.20;99.90
9486;DHT22;4781;48.776;9.200;2023-04-29T14:51:40;17.30;99.90
9486;DHT22;4781;48.776;9.200;2023-04-29T14:54:06;17.30;99.90
9486;DHT22;4781;48.776;9.200;2023-04-29T14:56:36;17.30;99.90
9486;DHT22;4781;48.776;9.200;2023-04-29T14:59:01;17.10;99.90
9486;DHT22;4781;48.776;9.200;2023-04-29T15:01:27;16.90;99.90
9486;DHT22;4781;48.776;9.200;2023-04-29T15:03:53;16.80;99.90
9486;DHT22;4781;48.776;9.200;2023-04-29T15:06:19;16.70;99.90
9486;DHT22;4781;48.776;9.200;2023-04-29T15:08:45;16.70;99.90
9486;DHT22;4781;48.776;9.200;2023-04-29T15:11:11;16.80;99.90
9486;DHT22;4781;48.776;9.200;2023-04-29T15:13:37;16.90;99.90
9486;DHT22;4781;48.776;9.200;2023-04-29T15:16:04;17.00;99.90
9486;DHT22;4781;48.776;9.200;2023-04-29T15:18:31;16.90;99.90
9486;DHT22;4781;48.776;9.200;2023-04-29T15:20:57;16.80;99.90
9486;DHT22;4781;48.776;9.200;2023-04-29T15:23:23;16.70;99.90
9486;DHT22;4781;48.776;9.200;2023-04-29T15:25:50;16.80;99.90
9486;DHT22;4781;48.776;9.200;2023-04-29T15:28:17;16.90;99.90
9486;DHT22;4781;48.776;9.200;2023-04-29T15:30:43;17.00;99.90
9486;DHT22;4781;48.776;9.200;2023-04-29T15:33:09;17.00;99.90
9486;DHT22;4781;48.776;9.200;2023-04-29T15:35:35;17.10;99.90
9486;DHT22;4781;48.776;9.200;2023-04-29T15:38:01;17.10;99.90
9486;DHT22;4781;48.776;9.200;2023-04-29T15:40:27;17.10;99.90
9486;DHT22;4781;48.776;9.200;2023-04-29T15:42:53;16.90;99.90
9486;DHT22;4781;48.776;9.200;2023-04-29T15:45:19;16.80;99.90
9486;DHT22;4781;48.776;9.200;2023-04-29T15:47:45;16.70;99.90
9486;DHT22;4781;48.776;9.200;2023-04-29T15:50:11;16.50;99.90
9486;DHT22;4781;48.776;9.200;2023-04-29T15:52:37;16.40;99.90
9486;DHT22;4781;48.776;9.200;2023-04-29T15:55:04;16.30;99.90
9486;DHT22;4781;48.776;9.200;2023-04-29T15:57:31;16.20;99.90
9486;DHT22;4781;48.776;9.200;2023-04-29T15:59:59;16.10;99.90
9486;DHT22;4781;48.776;9.200;2023-04-29T16:02:24;16.00;99.90
9486;DHT22;4781;48.776;9.200;2023-04-29T16:04:50;15.90;99.90
9486;DHT22;4781;48.776;9.200;2023-04-29T16:07:16;15.80;99.90
9486;DHT22;4781;48.776;9.200;2023-04-29T16:09:42;15.80;99.90
9486;DHT22;4781;48.776;9.200;2023-04-29T16:12:08;15.70;99.90
9486;DHT22;4781;48.776;9.200;2023-04-29T16:14:36;15.60;99.90
9486;DHT22;4781;48.776;9.200;2023-04-29T16:17:02;15.50;99.90
9486;DHT22;4781;48.776;9.200;2023-04-29T16:19:28;15.40;99.90
9486;DHT22;4781;48.776;9.200;2023-04-29T16:21:54;15.30;99.90
9486;DHT22;4781;48.776;9.200;2023-04-29T16:24:20;15.30;99.90
9486;DHT22;4781;48.776;9.200;2023-04-29T16:26:46;15.20;99.90
9486;DHT22;4781;48.776;9.200;2023-04-29T16:29:12;15.10;99.90
9486;DHT22;4781;48.776;9.200;2023-04-29T16:31:38;15.00;99.90
9486;DHT22;4781;48.776;9.200;2023-04-29T16:34:04;15.00;99.90
9486;DHT22;4781;48.776;9.200;2023-04-29T16:36:31;14.90;99.90
9486;DHT22;4781;48.776;9.200;2023-04-29T16:38:57;14.80;99.90
9486;DHT22;4781;48.776;9.200;2023-04-29T16:41:23;14.80;99.90
9486;DHT22;4781;48.776;9.200;2023-04-29T16:43:51;14.80;99.90
9486;DHT22;4781;48.776;9.200;2023-04-29T16:46:18;14.70;99.90
9486;DHT22;4781;48.776;9.200;2023-04-29T16:48:44;14.60;99.90
9486;DHT22;4781;48.776;9.200;2023-04-29T16:51:10;14.50;99.90
9486;DHT22;4781;48.776;9.200;2023-04-29T16:53:36;14.40;99.90
9486;DHT22;4781;48.776;9.200;2023-04-29T16:56:02;14.40;99.90
9486;DHT22;4781;48.776;9.200;2023-04-29T16:58:28;14.30;99.90